Aérodrome :
LOGIN :

S'inscrire | Disclaimer

   EN    FR    IT 

 










Légende :    VFR   VFR Marginal   IFR   IFR Intensif   IFR Très Intensif
Visi : 
Plafond : 
>= 8 km
>= 3000ft
5 à 8 km
1000 à 3000 ft
1500m à 5 km
500 à 1000 ft
800 à 1500m
200 à 500 ft
< 800m
< 200 ft
Symboles :   Orages  Brouillard  Fortes neiges  Fortes précipitations  Vent > 20 kt
SIGMETs :   Divers  Orages  Givrage  Turbulence  Onde Orograph.  Cendres Volcan.







- Altitude de l'aérodrome : 278 ft
- Code IATA : RJK


LDRI - Rijeka

DERNIER METAR :
  • 192000Z 04019G33KT 010V090 9999 -RA FEW020 SCT056 BKN075 13/06 Q1010

METARs EXPIRÉS :
  • 191930Z 05017G29KT 350V070 9999 FEW020 SCT056 BKN066 13/06 Q1010
  • 191900Z 04016G28KT 360V090 9999 -RA FEW016 SCT056 BKN066 13/06 Q1010
  • 191830Z 04015G30KT 340V080 9999 -RA FEW016 BKN056 BKN072 13/06 Q1010
  • 191800Z 05015G25KT 010V110 9999 -RA FEW016 BKN056 BKN072 13/06 Q1010
  • 191730Z 05014G28KT 350V110 9999 FEW015 SCT030 BKN060 14/06 Q1009

TAF TAF LDRI
Valide du 19 à 18h jusqu'au 20 à 18h UTC


191725Z 1918/2018 05014KT 9999 FEW015 BKN050 TX14/2012Z TN12/2003Z
TEMPO 1918/2008 05020G40KT
PROB30
TEMPO 1918/2000 4000 TSRA FEW015 FEW025CB BKN035
BECMG 2008/2010 32010KT
PROB40
TEMPO 2008/2018 04014G24KT
Pas de NOTAMs connus pour ce terrain.
1 SIGMET publié pour la FIR Zagreb (LDZO) :
 
Orages noyés dans la masse
LDZO SIGMET 11 VALID 191930/192300 LDZA
LDZO ZAGREB FIR EMBD TS FCST WI N4220 E01613 - N4331 E01430 - N4352 E01641 - N4303 E01739 - N4216 E01633 - N4220 E01613 TOP FL320 MOV ENE 5KT NC=



MET'MAP, la Météo Aéronautique d'un coup d'oeil ! - Copyright ORBIFLY Décembre 2007 - Disclaimer

ORBIFLY MET'MAP TEAM :

Programmation & Développement : Alexandra Zaïnal
Conception & Développement : Baudouin d'Aumeries
Co-Programmation & Développement : Marc-Olivier Méhu
Soutien technique & logistique : Manuel Goepfert

Contact : metmap@orbifly.com




SOURCES & CREDITS :

   NOAA